createdAt,value
2018-04-27T00:01:14.926Z,6.60
2018-04-27T00:03:42.823Z,6.80
2018-04-27T00:06:09.253Z,6.80
2018-04-27T00:08:36.402Z,6.60
2018-04-27T00:11:03.569Z,6.60
2018-04-27T00:13:30.002Z,6.60
2018-04-27T00:15:56.430Z,6.60
2018-04-27T00:18:22.900Z,6.60
2018-04-27T00:20:49.302Z,6.50
2018-04-27T00:23:15.695Z,6.40
2018-04-27T00:25:42.880Z,6.40
2018-04-27T00:28:10.009Z,6.40
2018-04-27T00:30:37.134Z,6.40
2018-04-27T00:33:03.603Z,6.40
2018-04-27T00:35:30.725Z,6.30
2018-04-27T00:37:57.147Z,6.20
2018-04-27T00:40:24.276Z,6.20
2018-04-27T00:42:50.666Z,6.20
2018-04-27T00:45:17.819Z,6.00
2018-04-27T00:47:44.953Z,5.90
2018-04-27T00:50:12.091Z,5.80
2018-04-27T00:52:50.687Z,5.70
2018-04-27T00:55:17.090Z,5.80
2018-04-27T00:57:43.491Z,5.80
2018-04-27T01:00:10.653Z,5.70
2018-04-27T01:02:37.783Z,5.70
2018-04-27T01:05:04.912Z,5.60
2018-04-27T01:07:31.335Z,5.60
2018-04-27T01:09:57.770Z,5.50
2018-04-27T01:12:24.904Z,5.40
2018-04-27T01:14:51.381Z,5.40
2018-04-27T01:17:18.529Z,5.40
2018-04-27T01:19:45.672Z,5.30
2018-04-27T01:22:12.822Z,5.40
2018-04-27T01:24:40.033Z,5.40
2018-04-27T01:27:06.421Z,5.40
2018-04-27T01:29:33.620Z,5.20
2018-04-27T01:32:00.038Z,5.20
2018-04-27T01:34:26.422Z,5.30
2018-04-27T01:36:53.538Z,5.40
2018-04-27T01:39:19.935Z,5.40
2018-04-27T01:41:46.336Z,5.40
2018-04-27T01:44:13.543Z,5.50
2018-04-27T01:46:39.948Z,5.50
2018-04-27T01:49:06.364Z,5.50
2018-04-27T01:51:33.495Z,5.40
2018-04-27T01:54:01.379Z,5.40
2018-04-27T01:56:28.547Z,5.30
2018-04-27T01:58:54.950Z,5.30
2018-04-27T02:01:22.081Z,4.80
2018-04-27T02:03:48.477Z,4.80
2018-04-27T02:06:14.879Z,4.80
2018-04-27T02:08:41.284Z,4.60
2018-04-27T02:11:09.170Z,4.30
2018-04-27T02:13:36.290Z,4.50
2018-04-27T02:16:02.752Z,4.50
2018-04-27T02:18:29.904Z,4.60
2018-04-27T02:20:57.072Z,4.60
2018-04-27T02:23:23.467Z,4.60
2018-04-27T02:25:50.107Z,4.80
2018-04-27T02:28:17.249Z,4.90
2018-04-27T02:30:43.661Z,4.90
2018-04-27T02:33:10.097Z,5.00
2018-04-27T02:35:36.498Z,5.10
2018-04-27T02:38:02.905Z,5.20
2018-04-27T02:40:30.038Z,4.90
2018-04-27T02:42:57.193Z,4.90
2018-04-27T02:45:24.311Z,4.60
2018-04-27T02:47:51.444Z,4.20
2018-04-27T02:50:17.880Z,4.20
2018-04-27T02:52:44.287Z,4.10
2018-04-27T02:55:10.690Z,3.90
2018-04-27T02:57:37.877Z,3.90
2018-04-27T03:00:04.320Z,3.90
2018-04-27T03:02:30.716Z,3.90
2018-04-27T03:04:57.190Z,4.00
2018-04-27T03:07:23.570Z,4.20
2018-04-27T03:09:50.755Z,4.30
2018-04-27T03:12:17.142Z,4.30
2018-04-27T03:14:43.534Z,4.30
2018-04-27T03:17:09.984Z,4.30
2018-04-27T03:19:36.424Z,4.40
2018-04-27T03:22:04.330Z,4.10
2018-04-27T03:24:31.502Z,4.10
2018-04-27T03:26:57.904Z,4.00
2018-04-27T03:29:25.044Z,4.00
2018-04-27T03:31:51.419Z,4.00
2018-04-27T03:34:17.819Z,3.70
2018-04-27T03:36:44.964Z,3.40
2018-04-27T03:39:12.122Z,3.40
2018-04-27T03:41:39.300Z,3.40
2018-04-27T03:44:05.696Z,3.40
2018-04-27T03:46:32.847Z,3.60
2018-04-27T03:48:59.989Z,3.70
2018-04-27T03:51:27.205Z,3.70
2018-04-27T03:53:53.612Z,3.70
2018-04-27T03:56:20.012Z,3.80
2018-04-27T03:58:47.142Z,4.00
2018-04-27T04:01:25.867Z,3.90
2018-04-27T04:04:04.660Z,4.00
2018-04-27T04:06:31.043Z,4.00
2018-04-27T04:08:58.198Z,4.00
2018-04-27T04:11:24.643Z,3.90
2018-04-27T04:13:51.808Z,4.00
2018-04-27T04:16:18.218Z,3.90
2018-04-27T04:18:45.384Z,4.00
2018-04-27T04:21:11.780Z,3.90
2018-04-27T04:23:38.945Z,4.00
2018-04-27T04:26:05.368Z,4.00
2018-04-27T04:28:32.519Z,4.20
2018-04-27T04:30:59.674Z,4.20
2018-04-27T04:33:26.806Z,4.20
2018-04-27T04:35:53.194Z,4.20
2018-04-27T04:38:19.632Z,4.30
2018-04-27T04:40:46.002Z,4.30
2018-04-27T04:43:12.424Z,4.40
2018-04-27T04:45:38.803Z,4.60
2018-04-27T04:48:05.186Z,4.70
2018-04-27T04:50:31.643Z,4.80
2018-04-27T04:52:58.799Z,4.80
2018-04-27T04:55:25.954Z,4.90
2018-04-27T04:57:53.114Z,5.10
2018-04-27T05:00:19.586Z,5.10
2018-04-27T05:02:46.066Z,5.30
2018-04-27T05:05:12.461Z,5.30
2018-04-27T05:07:38.963Z,5.40
2018-04-27T05:10:05.414Z,5.40
2018-04-27T05:12:31.821Z,5.40
2018-04-27T05:14:58.225Z,5.50
2018-04-27T05:17:24.614Z,5.60
2018-04-27T05:19:54.708Z,5.60
2018-04-27T05:22:21.119Z,5.80
2018-04-27T05:24:48.252Z,5.80
2018-04-27T05:27:16.188Z,5.80
2018-04-27T05:29:42.720Z,5.80
2018-04-27T05:32:09.125Z,5.80
2018-04-27T05:34:35.593Z,5.90
2018-04-27T05:37:02.047Z,6.00
2018-04-27T05:39:28.489Z,6.00
2018-04-27T05:41:55.682Z,6.30
2018-04-27T05:44:22.121Z,6.30
2018-04-27T05:46:48.570Z,6.40
2018-04-27T05:49:15.017Z,6.70
2018-04-27T05:51:41.498Z,6.90
2018-04-27T05:54:07.937Z,7.10
2018-04-27T05:56:35.122Z,7.70
2018-04-27T05:59:01.575Z,7.70
2018-04-27T06:01:28.001Z,7.70
2018-04-27T06:04:07.462Z,7.70
2018-04-27T06:06:34.628Z,8.30
2018-04-27T06:09:01.814Z,8.70
2018-04-27T06:11:28.245Z,8.70
2018-04-27T06:13:54.641Z,9.40
2018-04-27T06:16:21.812Z,10.40
2018-04-27T06:18:48.248Z,10.40
2018-04-27T06:21:14.657Z,10.80
2018-04-27T06:23:41.805Z,11.40
2018-04-27T06:26:08.983Z,11.50
2018-04-27T06:28:48.111Z,11.50
2018-04-27T06:31:14.568Z,11.60
2018-04-27T06:33:41.023Z,12.00
2018-04-27T06:36:07.435Z,12.60
2018-04-27T06:38:33.938Z,12.40
2018-04-27T06:41:00.376Z,12.70
2018-04-27T06:43:26.821Z,13.20
2018-04-27T06:45:53.314Z,13.40
2018-04-27T06:48:19.784Z,13.40
2018-04-27T06:50:46.218Z,13.40
2018-04-27T06:53:12.640Z,13.60
2018-04-27T06:55:39.082Z,13.80
2018-04-27T06:58:05.520Z,13.90
2018-04-27T07:00:32.022Z,13.70
2018-04-27T07:02:59.196Z,13.50
2018-04-27T07:05:25.635Z,13.50
2018-04-27T07:07:52.091Z,13.60
2018-04-27T07:10:18.529Z,13.60
2018-04-27T07:12:44.976Z,13.50
2018-04-27T07:15:11.457Z,13.50
2018-04-27T07:17:37.861Z,13.80
2018-04-27T07:20:05.044Z,14.00
2018-04-27T07:22:31.442Z,14.00
2018-04-27T07:24:57.844Z,14.20
2018-04-27T07:27:24.233Z,14.40
2018-04-27T07:29:50.635Z,14.70
2018-04-27T07:32:17.822Z,15.30
2018-04-27T07:34:44.268Z,15.30
2018-04-27T07:37:10.755Z,15.70
2018-04-27T07:39:37.222Z,15.40
2018-04-27T07:42:03.617Z,15.00
2018-04-27T07:44:30.106Z,14.90
2018-04-27T07:46:56.558Z,14.90
2018-04-27T07:49:22.988Z,15.20
2018-04-27T07:51:49.437Z,15.30
2018-04-27T07:54:15.870Z,15.90
2018-04-27T07:56:42.314Z,16.00
2018-04-27T07:59:08.752Z,15.50
2018-04-27T08:01:35.237Z,15.10
2018-04-27T08:04:01.676Z,14.70
2018-04-27T08:06:28.122Z,14.50
2018-04-27T08:08:54.605Z,14.80
2018-04-27T08:11:21.034Z,14.80
2018-04-27T08:13:48.213Z,15.30
2018-04-27T08:16:14.807Z,15.30
2018-04-27T08:18:41.303Z,15.10
2018-04-27T08:21:07.746Z,15.20
2018-04-27T08:23:34.186Z,15.10
2018-04-27T08:26:00.626Z,15.20
2018-04-27T08:28:27.097Z,15.10
2018-04-27T08:30:54.322Z,15.10
2018-04-27T08:33:20.762Z,15.10
2018-04-27T08:35:47.244Z,15.10
2018-04-27T08:38:13.645Z,15.30
2018-04-27T08:40:40.816Z,14.90
2018-04-27T08:43:07.257Z,14.90
2018-04-27T08:45:33.665Z,14.60
2018-04-27T08:48:00.848Z,14.60
2018-04-27T08:52:58.205Z,14.90
2018-04-27T08:55:24.662Z,14.90
2018-04-27T08:57:51.224Z,15.20
2018-04-27T09:00:17.764Z,15.30
2018-04-27T09:02:45.907Z,15.20
2018-04-27T09:05:14.356Z,15.30
2018-04-27T09:07:42.553Z,15.50
2018-04-27T09:10:09.147Z,15.90
2018-04-27T09:12:36.905Z,15.80
2018-04-27T09:15:06.336Z,15.70
2018-04-27T09:17:35.261Z,16.40
2018-04-27T09:20:03.172Z,16.00
2018-04-27T09:22:31.530Z,15.90
2018-04-27T09:24:59.247Z,15.90
2018-04-27T09:27:27.168Z,15.60
2018-04-27T09:29:54.867Z,15.60
2018-04-27T09:32:22.959Z,15.60
2018-04-27T09:34:50.523Z,16.00
2018-04-27T09:37:18.435Z,16.00
2018-04-27T09:39:45.030Z,15.70
2018-04-27T09:42:12.390Z,15.60
2018-04-27T09:44:40.429Z,16.00
2018-04-27T09:47:07.850Z,16.20
2018-04-27T09:49:35.533Z,16.20
2018-04-27T09:52:02.973Z,16.30
2018-04-27T09:54:31.440Z,16.50
2018-04-27T09:56:59.192Z,16.40
2018-04-27T09:59:25.728Z,16.60
2018-04-27T10:01:53.863Z,16.50
2018-04-27T10:04:20.413Z,16.20
2018-04-27T10:06:47.089Z,15.90
2018-04-27T10:09:14.408Z,16.00
2018-04-27T10:11:44.100Z,16.00
2018-04-27T10:14:10.666Z,16.10
2018-04-27T10:16:37.166Z,16.60
2018-04-27T10:19:04.449Z,16.70
2018-04-27T10:21:32.414Z,16.40
2018-04-27T10:23:58.982Z,16.40
2018-04-27T10:26:25.569Z,16.30
2018-04-27T10:28:52.000Z,16.60
2018-04-27T10:31:19.203Z,16.80
2018-04-27T10:33:45.725Z,17.00
2018-04-27T10:36:12.862Z,17.50
2018-04-27T10:38:39.280Z,17.20
2018-04-27T10:41:05.716Z,17.20
2018-04-27T10:43:32.161Z,17.00
2018-04-27T10:45:59.310Z,16.70
2018-04-27T10:48:25.761Z,16.80
2018-04-27T10:50:52.295Z,17.00
2018-04-27T10:53:18.782Z,16.90
2018-04-27T10:55:45.241Z,17.00
2018-04-27T10:58:11.699Z,17.20
2018-04-27T11:00:38.184Z,17.50
2018-04-27T11:03:04.636Z,17.30
2018-04-27T11:05:31.107Z,17.40
2018-04-27T11:07:57.581Z,17.60
2018-04-27T11:10:24.786Z,17.30
2018-04-27T11:12:51.248Z,17.20
2018-04-27T11:15:19.230Z,17.40
2018-04-27T11:17:46.421Z,17.20
2018-04-27T11:20:12.901Z,17.10
2018-04-27T11:22:39.335Z,17.20
2018-04-27T11:25:07.260Z,17.70
2018-04-27T11:27:33.712Z,17.70
2018-04-27T11:30:00.128Z,17.50
2018-04-27T11:32:26.520Z,17.30
2018-04-27T11:34:53.767Z,17.40
2018-04-27T11:37:20.980Z,17.50
2018-04-27T11:39:47.423Z,17.50
2018-04-27T11:42:13.961Z,17.40
2018-04-27T11:44:40.407Z,17.60
2018-04-27T11:47:06.850Z,17.70
2018-04-27T11:49:34.064Z,18.10
2018-04-27T11:52:00.547Z,18.10
2018-04-27T11:54:28.629Z,18.40
2018-04-27T11:56:55.062Z,18.40
2018-04-27T11:59:22.578Z,17.90
2018-04-27T12:01:49.052Z,17.90
2018-04-27T12:04:15.502Z,18.30
2018-04-27T12:06:42.745Z,18.30
2018-04-27T12:09:09.211Z,18.30
2018-04-27T12:11:36.047Z,18.20
2018-04-27T12:14:02.507Z,18.00
2018-04-27T12:16:28.964Z,17.90
2018-04-27T12:18:56.189Z,17.40
2018-04-27T12:21:22.620Z,17.40
2018-04-27T12:23:49.057Z,17.10
2018-04-27T12:26:15.514Z,17.60
2018-04-27T12:28:41.926Z,17.60
2018-04-27T12:31:08.432Z,17.80
2018-04-27T12:33:34.784Z,17.60
2018-04-27T12:36:01.214Z,17.90
2018-04-27T12:38:27.654Z,18.10
2018-04-27T12:40:54.159Z,18.60
2018-04-27T12:43:20.607Z,18.30
2018-04-27T12:45:47.032Z,18.40
2018-04-27T12:48:13.485Z,18.40
2018-04-27T12:50:39.927Z,18.70
2018-04-27T12:53:06.357Z,18.50
2018-04-27T12:55:32.848Z,18.30
2018-04-27T12:57:59.315Z,18.40
2018-04-27T13:00:25.749Z,18.70
2018-04-27T13:02:52.149Z,18.60
2018-04-27T13:05:18.612Z,18.80
2018-04-27T13:07:45.049Z,18.30
2018-04-27T13:10:11.486Z,18.10
2018-04-27T13:12:37.961Z,18.10
2018-04-27T13:15:05.150Z,18.30
2018-04-27T13:17:31.583Z,18.30
2018-04-27T13:19:58.066Z,18.10
2018-04-27T13:22:25.228Z,17.90
2018-04-27T13:24:51.632Z,17.90
2018-04-27T13:27:18.030Z,18.10
2018-04-27T13:29:44.463Z,18.40
2018-04-27T13:32:10.914Z,18.70
2018-04-27T13:34:37.316Z,18.40
2018-04-27T13:37:03.764Z,18.90
2018-04-27T13:39:30.954Z,18.60
2018-04-27T13:41:57.380Z,18.60
2018-04-27T13:44:24.524Z,18.50
2018-04-27T13:46:50.981Z,18.50
2018-04-27T13:49:17.392Z,18.40
2018-04-27T13:51:43.913Z,18.80
2018-04-27T13:54:10.366Z,19.00
2018-04-27T13:56:36.831Z,18.90
2018-04-27T13:59:04.326Z,18.50
2018-04-27T14:01:30.757Z,18.50
2018-04-27T14:03:57.186Z,18.30
2018-04-27T14:06:23.632Z,18.30
2018-04-27T14:08:50.067Z,18.70
2018-04-27T14:11:17.253Z,18.20
2018-04-27T14:13:43.700Z,18.20
2018-04-27T14:16:10.122Z,18.40
2018-04-27T14:18:36.563Z,18.30
2018-04-27T14:21:03.033Z,18.70
2018-04-27T14:23:29.449Z,18.90
2018-04-27T14:25:56.619Z,19.30
2018-04-27T14:28:23.034Z,19.30
2018-04-27T14:30:50.180Z,19.20
2018-04-27T14:33:16.581Z,19.20
2018-04-27T14:35:43.014Z,18.80
2018-04-27T14:38:09.411Z,18.60
2018-04-27T14:40:35.808Z,18.60
2018-04-27T14:43:03.002Z,19.00
2018-04-27T14:45:29.444Z,18.90
2018-04-27T14:47:55.855Z,19.40
2018-04-27T14:50:22.331Z,19.00
2018-04-27T14:53:01.943Z,18.30
2018-04-27T14:55:28.346Z,18.40
2018-04-27T14:58:08.316Z,17.90
2018-04-27T15:00:34.815Z,17.90
2018-04-27T15:03:01.312Z,18.30
2018-04-27T15:05:27.758Z,18.40
2018-04-27T15:07:54.175Z,18.40
2018-04-27T15:10:21.417Z,18.50
2018-04-27T15:12:47.836Z,18.50
2018-04-27T15:15:14.270Z,18.50
2018-04-27T15:17:40.676Z,18.40
2018-04-27T15:20:08.874Z,18.90
2018-04-27T15:22:35.313Z,18.90
2018-04-27T15:25:02.648Z,18.80
2018-04-27T15:27:29.112Z,18.60
2018-04-27T15:29:55.529Z,18.40
2018-04-27T15:32:21.983Z,18.00
2018-04-27T15:34:48.392Z,17.90
2018-04-27T15:37:14.827Z,17.90
2018-04-27T15:39:41.276Z,18.10
2018-04-27T15:42:07.750Z,18.20
2018-04-27T15:44:34.147Z,18.00
2018-04-27T15:47:00.597Z,18.10
2018-04-27T15:49:27.067Z,18.00
2018-04-27T15:51:54.324Z,17.90
2018-04-27T15:54:20.767Z,17.90
2018-04-27T15:56:48.858Z,17.80
2018-04-27T15:59:15.284Z,17.80
2018-04-27T16:01:41.768Z,17.80
2018-04-27T16:04:08.445Z,17.90
2018-04-27T16:06:35.677Z,17.90
2018-04-27T16:09:02.154Z,17.90
2018-04-27T16:11:28.620Z,18.00
2018-04-27T16:13:55.992Z,18.00
2018-04-27T16:16:23.406Z,17.90
2018-04-27T16:18:50.760Z,18.10
2018-04-27T16:21:17.240Z,18.00
2018-04-27T16:23:44.628Z,17.80
2018-04-27T16:26:11.087Z,17.80
2018-04-27T16:28:37.548Z,17.80
2018-04-27T16:31:03.992Z,17.90
2018-04-27T16:33:30.435Z,17.80
2018-04-27T16:35:57.631Z,17.60
2018-04-27T16:38:24.079Z,17.60
2018-04-27T16:40:50.514Z,17.50
2018-04-27T16:43:16.912Z,17.70
2018-04-27T16:45:44.081Z,17.60
2018-04-27T16:48:10.506Z,17.50
2018-04-27T16:50:36.949Z,17.40
2018-04-27T16:53:03.366Z,17.40
2018-04-27T16:55:30.546Z,17.40
2018-04-27T16:57:56.978Z,17.30
2018-04-27T17:00:23.410Z,17.30
2018-04-27T17:02:49.830Z,17.40
2018-04-27T17:05:16.300Z,17.30
2018-04-27T17:07:42.743Z,17.30
2018-04-27T17:10:09.183Z,17.30
2018-04-27T17:12:35.634Z,17.20
2018-04-27T17:15:02.839Z,17.00
2018-04-27T17:17:29.286Z,17.00
2018-04-27T17:19:55.721Z,16.90
2018-04-27T17:22:22.199Z,17.00
2018-04-27T17:24:49.401Z,17.10
2018-04-27T17:27:15.864Z,17.00
2018-04-27T17:29:43.125Z,16.90
2018-04-27T17:32:10.322Z,16.80
2018-04-27T17:34:36.762Z,16.70
2018-04-27T17:37:03.312Z,16.70
2018-04-27T17:39:31.148Z,17.10
2018-04-27T17:41:57.614Z,17.10
2018-04-27T17:44:24.107Z,17.20
2018-04-27T17:46:50.543Z,17.20
2018-04-27T17:49:16.986Z,17.00
2018-04-27T17:51:43.410Z,17.00
2018-04-27T17:54:09.802Z,16.80
2018-04-27T17:56:36.215Z,16.90
2018-04-27T17:59:02.627Z,16.80
2018-04-27T18:01:29.056Z,16.70
2018-04-27T18:03:55.498Z,16.90
2018-04-27T18:06:21.995Z,16.90
2018-04-27T18:08:49.180Z,16.90
2018-04-27T18:11:15.600Z,16.90
2018-04-27T18:13:42.031Z,16.90
2018-04-27T18:16:08.468Z,16.90
2018-04-27T18:18:34.929Z,17.00
2018-04-27T18:21:01.417Z,17.10
2018-04-27T18:23:28.630Z,16.70
2018-04-27T18:25:55.029Z,16.70
2018-04-27T18:28:21.469Z,16.70
2018-04-27T18:30:47.914Z,16.70
2018-04-27T18:33:14.404Z,16.40
2018-04-27T18:35:40.882Z,16.50
2018-04-27T18:38:07.290Z,16.60
2018-04-27T18:40:33.722Z,16.30
2018-04-27T18:43:00.153Z,16.20
2018-04-27T18:45:26.629Z,16.00
2018-04-27T18:47:53.056Z,15.80
2018-04-27T18:50:19.501Z,16.00
2018-04-27T18:52:45.937Z,15.80
2018-04-27T18:55:12.386Z,15.80
2018-04-27T18:57:39.584Z,15.60
2018-04-27T19:00:06.007Z,15.60
2018-04-27T19:02:32.437Z,15.50
2018-04-27T19:04:58.870Z,15.50
2018-04-27T19:07:25.306Z,15.40
2018-04-27T19:09:51.757Z,15.40
2018-04-27T19:12:18.195Z,15.20
2018-04-27T19:14:46.466Z,15.10
2018-04-27T19:17:12.907Z,15.10
2018-04-27T19:19:39.463Z,15.10
2018-04-27T19:22:05.972Z,15.20
2018-04-27T19:24:32.453Z,15.30
2018-04-27T19:26:59.651Z,15.30
2018-04-27T19:29:26.185Z,15.30
2018-04-27T19:31:53.326Z,15.00
2018-04-27T19:34:19.801Z,15.00
2018-04-27T19:36:46.236Z,14.90
2018-04-27T19:39:12.681Z,14.60
2018-04-27T19:41:39.118Z,14.50
2018-04-27T19:44:06.311Z,14.20
2018-04-27T19:46:32.752Z,14.20
2018-04-27T19:48:59.183Z,14.10
2018-04-27T19:51:25.620Z,14.10
2018-04-27T19:53:52.064Z,14.10
2018-04-27T19:56:18.521Z,14.00
2018-04-27T19:58:45.727Z,13.90
2018-04-27T20:01:12.163Z,13.90
2018-04-27T20:03:38.598Z,13.70
2018-04-27T20:06:05.050Z,13.70
2018-04-27T20:08:31.569Z,13.80
2018-04-27T20:10:58.040Z,13.80
2018-04-27T20:13:25.173Z,13.80
2018-04-27T20:15:57.466Z,13.70
2018-04-27T20:18:23.917Z,13.70
2018-04-27T20:20:51.154Z,13.60
2018-04-27T20:23:18.368Z,13.60
2018-04-27T20:25:44.807Z,13.70
2018-04-27T20:28:11.251Z,13.70
2018-04-27T20:30:39.609Z,13.60
2018-04-27T20:33:08.811Z,13.60
2018-04-27T20:35:35.386Z,13.60
2018-04-27T20:40:56.484Z,13.50
2018-04-27T20:43:23.768Z,13.60
2018-04-27T20:45:50.274Z,13.60
2018-04-27T20:48:19.691Z,13.60
2018-04-27T20:50:49.158Z,13.40
2018-04-27T20:53:16.001Z,13.40
2018-04-27T20:55:42.443Z,13.40
2018-04-27T20:58:08.919Z,13.30
2018-04-27T21:00:36.144Z,13.10
2018-04-27T21:03:02.602Z,13.10
2018-04-27T21:05:29.060Z,13.20
2018-04-27T21:07:56.218Z,13.20
2018-04-27T21:10:23.390Z,13.10
2018-04-27T21:12:49.871Z,13.10
2018-04-27T21:15:16.295Z,13.10
2018-04-27T21:17:43.610Z,13.20
2018-04-27T21:20:10.092Z,13.10
2018-04-27T21:22:36.554Z,13.00
2018-04-27T21:25:03.762Z,12.70
2018-04-27T21:27:36.089Z,12.70
2018-04-27T21:30:02.645Z,12.60
2018-04-27T21:32:29.792Z,12.20
2018-04-27T21:34:56.250Z,12.20
2018-04-27T21:37:22.677Z,12.00
2018-04-27T21:39:49.201Z,12.00
2018-04-27T21:42:15.656Z,12.00
2018-04-27T21:44:45.012Z,12.10
2018-04-27T21:47:27.167Z,12.20
2018-04-27T21:49:53.629Z,12.30
2018-04-27T21:52:39.713Z,12.30
2018-04-27T21:55:06.921Z,12.30
2018-04-27T21:57:42.271Z,12.20
2018-04-27T22:00:11.555Z,12.30
2018-04-27T22:03:06.785Z,12.30
2018-04-27T22:08:30.992Z,12.20
2018-04-27T22:10:58.345Z,11.90
2018-04-27T22:13:24.778Z,11.30
2018-04-27T22:15:51.238Z,11.10
2018-04-27T22:18:18.421Z,10.70
2018-04-27T22:20:50.959Z,10.70
2018-04-27T22:23:17.692Z,10.70
2018-04-27T22:25:45.740Z,10.90
2018-04-27T22:28:12.201Z,10.90
2018-04-27T22:30:48.674Z,10.90
2018-04-27T22:33:21.325Z,10.90
2018-04-27T22:38:44.739Z,10.80
2018-04-27T22:41:11.922Z,10.50
2018-04-27T22:43:38.352Z,10.50
2018-04-27T22:46:12.494Z,10.30
2018-04-27T22:48:42.759Z,10.30
2018-04-27T22:51:15.747Z,10.30
2018-04-27T22:53:50.774Z,10.30
2018-04-27T22:56:23.148Z,10.30
2018-04-27T22:58:50.320Z,10.10
2018-04-27T23:01:17.492Z,10.00
2018-04-27T23:03:43.922Z,10.00
2018-04-27T23:06:10.375Z,10.10
2018-04-27T23:08:52.676Z,10.10
2018-04-27T23:11:22.836Z,9.90
2018-04-27T23:14:04.179Z,9.80
2018-04-27T23:16:30.618Z,9.60
2018-04-27T23:18:57.086Z,9.60
2018-04-27T23:22:03.085Z,9.70
2018-04-27T23:24:32.455Z,9.70
2018-04-27T23:27:00.596Z,9.70
2018-04-27T23:29:27.050Z,9.70
2018-04-27T23:31:53.554Z,9.70
2018-04-27T23:34:22.856Z,9.80
2018-04-27T23:36:53.733Z,9.60
2018-04-27T23:39:20.926Z,9.50
2018-04-27T23:41:47.359Z,9.50
2018-04-27T23:44:13.804Z,9.50
2018-04-27T23:46:40.243Z,9.50
2018-04-27T23:49:06.706Z,9.60
2018-04-27T23:51:33.145Z,9.70
2018-04-27T23:54:00.340Z,9.60
2018-04-27T23:59:17.597Z,9.50
